createdAt,value
2022-10-04T00:00:26.283Z,9.70
2022-10-04T00:03:03.572Z,9.70
2022-10-04T00:05:44.008Z,9.70
2022-10-04T00:08:25.961Z,9.60
2022-10-04T00:11:05.045Z,9.60
2022-10-04T00:13:36.324Z,9.70
2022-10-04T00:16:09.722Z,9.60
2022-10-04T00:18:44.783Z,9.50
2022-10-04T00:21:13.532Z,9.50
2022-10-04T00:23:46.166Z,9.40
2022-10-04T00:26:47.950Z,9.30
2022-10-04T00:29:32.459Z,9.20
2022-10-04T00:32:29.334Z,9.20
2022-10-04T00:34:58.457Z,9.30
2022-10-04T00:37:29.207Z,9.30
2022-10-04T00:40:12.226Z,9.30
2022-10-04T00:42:51.071Z,9.20
2022-10-04T00:45:28.659Z,9.00
2022-10-04T00:48:34.590Z,9.10
2022-10-04T00:51:12.229Z,9.10
2022-10-04T00:54:05.438Z,9.10
2022-10-04T00:56:39.721Z,9.10
2022-10-04T00:59:19.443Z,9.00
2022-10-04T01:01:52.468Z,9.00
2022-10-04T01:04:36.860Z,9.10
2022-10-04T01:07:07.281Z,9.10
2022-10-04T01:09:41.643Z,9.20
2022-10-04T01:12:23.932Z,9.30
2022-10-04T01:15:00.987Z,9.30
2022-10-04T01:17:29.726Z,9.30
2022-10-04T01:20:00.849Z,9.20
2022-10-04T01:22:41.340Z,9.10
2022-10-04T01:25:33.848Z,8.80
2022-10-04T01:28:04.012Z,8.80
2022-10-04T01:30:34.388Z,8.50
2022-10-04T01:33:03.547Z,8.30
2022-10-04T01:35:32.174Z,8.30
2022-10-04T01:38:00.896Z,8.50
2022-10-04T01:40:31.869Z,8.60
2022-10-04T01:43:06.811Z,8.70
2022-10-04T01:45:41.692Z,8.60
2022-10-04T01:48:14.239Z,8.70
2022-10-04T01:50:47.679Z,8.80
2022-10-04T01:53:28.555Z,8.80
2022-10-04T01:56:06.522Z,9.00
2022-10-04T01:58:43.813Z,9.10
2022-10-04T02:01:16.262Z,9.20
2022-10-04T02:03:52.567Z,9.20
2022-10-04T02:06:22.710Z,9.30
2022-10-04T02:08:57.731Z,9.20
2022-10-04T02:11:31.394Z,9.00
2022-10-04T02:14:03.585Z,9.00
2022-10-04T02:16:33.414Z,9.10
2022-10-04T02:19:03.634Z,9.10
2022-10-04T02:21:33.957Z,8.90
2022-10-04T02:24:08.649Z,8.90
2022-10-04T02:26:37.251Z,8.80
2022-10-04T02:29:07.536Z,8.90
2022-10-04T02:31:56.323Z,8.90
2022-10-04T02:34:25.201Z,9.00
2022-10-04T02:36:55.972Z,9.00
2022-10-04T02:39:30.078Z,9.00
2022-10-04T02:42:03.910Z,9.00
2022-10-04T02:44:45.699Z,8.90
2022-10-04T02:47:18.479Z,9.10
2022-10-04T02:49:49.457Z,9.00
2022-10-04T02:52:23.795Z,9.00
2022-10-04T02:55:01.070Z,9.10
2022-10-04T02:57:30.775Z,9.00
2022-10-04T03:00:18.565Z,9.00
2022-10-04T03:03:11.880Z,9.10
2022-10-04T03:05:41.944Z,9.20
2022-10-04T03:08:12.001Z,9.10
2022-10-04T03:10:43.054Z,9.20
2022-10-04T03:13:15.412Z,9.30
2022-10-04T03:15:47.050Z,9.30
2022-10-04T03:18:17.164Z,9.30
2022-10-04T03:20:47.258Z,9.20
2022-10-04T03:23:23.007Z,9.20
2022-10-04T03:25:57.169Z,9.10
2022-10-04T03:28:28.334Z,9.00
2022-10-04T03:31:02.348Z,9.00
2022-10-04T03:33:48.160Z,8.80
2022-10-04T03:36:19.669Z,9.00
2022-10-04T03:38:49.968Z,9.10
2022-10-04T03:41:18.660Z,9.00
2022-10-04T03:43:50.513Z,9.20
2022-10-04T03:46:24.887Z,9.20
2022-10-04T03:48:55.582Z,9.00
2022-10-04T03:51:28.460Z,9.00
2022-10-04T03:54:00.306Z,9.10
2022-10-04T03:56:31.884Z,9.20
2022-10-04T03:59:03.073Z,9.20
2022-10-04T04:01:46.727Z,9.10
2022-10-04T04:04:23.425Z,9.10
2022-10-04T04:07:03.300Z,9.20
2022-10-04T04:09:44.208Z,9.00
2022-10-04T04:12:19.162Z,9.10
2022-10-04T04:14:52.246Z,9.20
2022-10-04T04:17:42.379Z,9.10
2022-10-04T04:20:24.395Z,9.20
2022-10-04T04:23:02.957Z,9.20
2022-10-04T04:25:36.160Z,9.20
2022-10-04T04:28:14.992Z,9.30
2022-10-04T04:30:48.908Z,9.30
2022-10-04T04:33:27.066Z,9.30
2022-10-04T04:35:57.626Z,9.30
2022-10-04T04:38:27.231Z,9.30
2022-10-04T04:40:57.366Z,9.30
2022-10-04T04:43:28.995Z,9.30
2022-10-04T04:46:25.551Z,9.30
2022-10-04T04:48:51.935Z,9.20
2022-10-04T04:51:23.162Z,9.20
2022-10-04T04:53:53.455Z,9.10
2022-10-04T04:56:24.973Z,9.20
2022-10-04T04:58:56.155Z,9.30
2022-10-04T05:01:28.589Z,9.40
2022-10-04T05:04:06.738Z,9.40
2022-10-04T05:06:37.487Z,9.40
2022-10-04T05:09:06.876Z,9.40
2022-10-04T05:11:39.795Z,9.40
2022-10-04T05:14:12.449Z,9.30
2022-10-04T05:16:44.487Z,9.30
2022-10-04T05:19:21.776Z,9.30
2022-10-04T05:21:54.372Z,9.40
2022-10-04T05:24:27.380Z,9.40
2022-10-04T05:26:58.987Z,9.50
2022-10-04T05:29:30.520Z,9.40
2022-10-04T05:32:14.347Z,9.40
2022-10-04T05:34:46.929Z,9.50
2022-10-04T05:37:46.591Z,9.50
2022-10-04T05:40:37.183Z,9.50
2022-10-04T05:43:23.289Z,9.50
2022-10-04T05:46:14.428Z,9.50
2022-10-04T05:48:44.487Z,9.50
2022-10-04T05:51:21.275Z,9.50
2022-10-04T05:53:52.312Z,9.60
2022-10-04T05:56:52.067Z,9.60
2022-10-04T05:59:41.942Z,9.60
2022-10-04T06:02:25.252Z,9.70
2022-10-04T06:05:07.464Z,9.80
2022-10-04T06:07:42.722Z,9.70
2022-10-04T06:10:30.700Z,9.90
2022-10-04T06:13:04.170Z,9.80
2022-10-04T06:15:57.545Z,9.90
2022-10-04T06:19:00.529Z,9.70
2022-10-04T06:21:30.360Z,9.70
2022-10-04T06:24:07.731Z,9.90
2022-10-04T06:26:43.670Z,9.90
2022-10-04T06:29:15.994Z,10.00
2022-10-04T06:32:14.028Z,9.80
2022-10-04T06:35:26.329Z,9.70
2022-10-04T06:38:23.597Z,9.90
2022-10-04T06:41:26.467Z,10.00
2022-10-04T06:44:12.607Z,10.20
2022-10-04T06:46:49.171Z,10.10
2022-10-04T06:49:44.031Z,10.30
2022-10-04T06:52:31.039Z,10.20
2022-10-04T06:55:33.188Z,10.20
2022-10-04T06:58:30.700Z,10.00
2022-10-04T07:01:07.358Z,10.10
2022-10-04T07:03:49.185Z,10.20
2022-10-04T07:06:28.879Z,10.20
2022-10-04T07:09:03.786Z,10.40
2022-10-04T07:11:42.958Z,10.50
2022-10-04T07:14:21.616Z,10.60
2022-10-04T07:16:54.931Z,10.60
2022-10-04T07:19:43.374Z,10.60
2022-10-04T07:22:18.723Z,10.50
2022-10-04T07:25:08.144Z,10.50
2022-10-04T07:27:45.951Z,10.40
2022-10-04T07:30:17.399Z,10.50
2022-10-04T07:32:47.858Z,10.60
2022-10-04T07:35:33.834Z,10.50
2022-10-04T07:38:18.185Z,10.70
2022-10-04T07:41:03.515Z,10.80
2022-10-04T07:43:37.757Z,10.70
2022-10-04T07:46:14.954Z,10.80
2022-10-04T07:48:49.298Z,10.90
2022-10-04T07:51:31.496Z,11.00
2022-10-04T07:54:03.580Z,11.20
2022-10-04T07:56:40.309Z,11.20
2022-10-04T07:59:35.309Z,11.20
2022-10-04T08:02:27.709Z,11.30
2022-10-04T08:05:09.228Z,11.30
2022-10-04T08:07:51.378Z,11.30
2022-10-04T08:10:29.490Z,11.40
2022-10-04T08:13:08.121Z,11.30
2022-10-04T08:15:39.269Z,11.30
2022-10-04T08:18:30.472Z,11.50
2022-10-04T08:21:00.927Z,11.60
2022-10-04T08:23:46.706Z,11.80
2022-10-04T08:26:35.154Z,11.80
2022-10-04T08:29:38.643Z,11.80
2022-10-04T08:32:23.238Z,11.70
2022-10-04T08:35:27.961Z,11.80
2022-10-04T08:38:18.057Z,11.60
2022-10-04T08:41:18.433Z,11.70
2022-10-04T08:44:20.248Z,11.70
2022-10-04T08:47:21.766Z,11.70
2022-10-04T08:50:34.623Z,11.60
2022-10-04T08:53:40.032Z,11.90
2022-10-04T08:56:15.081Z,12.20
2022-10-04T08:59:10.087Z,12.30
2022-10-04T09:02:12.223Z,12.40
2022-10-04T09:05:10.530Z,12.50
2022-10-04T09:08:04.802Z,12.60
2022-10-04T09:10:48.254Z,12.80
2022-10-04T09:13:37.643Z,13.00
2022-10-04T09:16:20.315Z,13.20
2022-10-04T09:19:00.397Z,13.20
2022-10-04T09:21:51.330Z,13.50
2022-10-04T09:24:56.209Z,13.60
2022-10-04T09:27:54.708Z,13.90
2022-10-04T09:30:33.136Z,14.00
2022-10-04T09:33:25.890Z,13.90
2022-10-04T09:36:17.156Z,13.90
2022-10-04T09:39:30.079Z,13.70
2022-10-04T09:42:33.678Z,13.70
2022-10-04T09:45:28.840Z,13.90
2022-10-04T09:48:10.476Z,14.30
2022-10-04T09:51:20.443Z,14.60
2022-10-04T09:54:04.776Z,14.20
2022-10-04T09:57:03.164Z,14.40
2022-10-04T10:00:01.915Z,14.50
2022-10-04T10:03:01.765Z,14.80
2022-10-04T10:05:48.450Z,14.80
2022-10-04T10:08:28.174Z,14.80
2022-10-04T10:11:22.416Z,15.00
2022-10-04T10:14:18.417Z,14.90
2022-10-04T10:17:05.098Z,14.90
2022-10-04T10:20:17.403Z,15.20
2022-10-04T10:23:21.189Z,15.40
2022-10-04T10:26:05.882Z,15.60
2022-10-04T10:29:20.342Z,15.90
2022-10-04T10:32:01.248Z,15.90
2022-10-04T10:35:15.664Z,15.60
2022-10-04T10:38:04.836Z,15.70
2022-10-04T10:40:59.919Z,16.00
2022-10-04T10:43:53.533Z,16.20
2022-10-04T10:46:47.600Z,16.60
2022-10-04T10:49:37.688Z,16.90
2022-10-04T10:52:44.701Z,17.10
2022-10-04T10:55:43.852Z,17.30
2022-10-04T10:59:05.461Z,17.20
2022-10-04T11:02:04.950Z,18.00
2022-10-04T11:04:49.696Z,17.80
2022-10-04T11:07:47.940Z,17.40
2022-10-04T11:10:50.038Z,16.80
2022-10-04T11:13:54.290Z,16.60
2022-10-04T11:17:07.826Z,16.30
2022-10-04T11:20:13.350Z,16.00
2022-10-04T11:23:18.993Z,16.40
2022-10-04T11:26:40.720Z,16.80
2022-10-04T11:29:21.392Z,16.90
2022-10-04T11:32:30.720Z,16.60
2022-10-04T11:35:36.912Z,16.50
2022-10-04T11:38:14.004Z,17.20
2022-10-04T11:41:03.861Z,17.70
2022-10-04T11:44:24.519Z,17.70
2022-10-04T11:46:58.009Z,17.50
2022-10-04T11:49:57.094Z,17.60
2022-10-04T11:53:04.306Z,17.40
2022-10-04T11:56:04.201Z,17.50
2022-10-04T11:58:45.471Z,17.20
2022-10-04T12:01:46.915Z,17.40
2022-10-04T12:04:32.829Z,17.40
2022-10-04T12:07:25.655Z,17.70
2022-10-04T12:10:04.077Z,18.00
2022-10-04T12:12:52.519Z,17.70
2022-10-04T12:15:45.529Z,17.80
2022-10-04T12:18:47.948Z,17.70
2022-10-04T12:21:40.167Z,17.90
2022-10-04T12:24:23.174Z,18.10
2022-10-04T12:27:05.312Z,17.90
2022-10-04T12:30:12.660Z,18.70
2022-10-04T12:32:57.541Z,18.60
2022-10-04T12:35:34.012Z,18.50
2022-10-04T12:38:24.621Z,17.90
2022-10-04T12:40:58.083Z,18.30
2022-10-04T12:43:38.346Z,18.30
2022-10-04T12:46:20.350Z,18.30
2022-10-04T12:48:57.506Z,18.10
2022-10-04T12:51:39.505Z,18.50
2022-10-04T12:54:25.470Z,18.40
2022-10-04T12:57:05.297Z,18.50
2022-10-04T12:59:48.728Z,18.90
2022-10-04T13:02:37.256Z,19.00
2022-10-04T13:05:15.749Z,18.60
2022-10-04T13:08:06.135Z,18.80
2022-10-04T13:10:47.897Z,18.20
2022-10-04T13:13:41.260Z,18.30
2022-10-04T13:19:20.397Z,18.50
2022-10-04T13:22:54.971Z,18.70
2022-10-04T13:25:27.042Z,18.90
2022-10-04T13:28:01.381Z,19.00
2022-10-04T13:30:38.752Z,19.30
2022-10-04T13:33:18.885Z,19.60
2022-10-04T13:35:58.818Z,20.20
2022-10-04T13:38:54.862Z,20.40
2022-10-04T13:41:34.074Z,20.60
2022-10-04T13:44:22.300Z,21.20
2022-10-04T13:47:07.452Z,20.30
2022-10-04T13:49:48.527Z,20.70
2022-10-04T13:52:47.195Z,20.50
2022-10-04T13:55:44.807Z,19.90
2022-10-04T13:58:27.034Z,19.40
2022-10-04T14:01:27.194Z,18.80
2022-10-04T14:04:10.456Z,18.20
2022-10-04T14:07:15.319Z,18.00
2022-10-04T14:10:02.192Z,18.10
2022-10-04T14:13:19.687Z,17.90
2022-10-04T14:16:15.558Z,17.70
2022-10-04T14:19:23.049Z,17.80
2022-10-04T14:22:25.187Z,17.80
2022-10-04T14:25:21.759Z,17.80
2022-10-04T14:28:16.964Z,17.70
2022-10-04T14:31:02.150Z,17.70
2022-10-04T14:33:56.017Z,17.70
2022-10-04T14:36:44.914Z,17.60
2022-10-04T14:39:41.604Z,17.70
2022-10-04T14:42:47.666Z,17.60
2022-10-04T14:45:32.861Z,17.60
2022-10-04T14:48:29.939Z,17.60
2022-10-04T14:51:27.787Z,17.40
2022-10-04T14:54:04.396Z,17.30
2022-10-04T14:57:02.557Z,17.30
2022-10-04T14:59:50.398Z,17.20
2022-10-04T15:02:52.690Z,17.20
2022-10-04T15:05:33.167Z,17.10
2022-10-04T15:08:30.989Z,17.00
2022-10-04T15:11:03.184Z,17.10
2022-10-04T15:13:39.436Z,17.10
2022-10-04T15:16:17.908Z,17.00
2022-10-04T15:18:53.425Z,17.00
2022-10-04T15:21:45.440Z,17.00
2022-10-04T15:24:29.071Z,17.00
2022-10-04T15:27:35.630Z,16.80
2022-10-04T15:30:14.358Z,16.80
2022-10-04T15:32:51.359Z,16.80
2022-10-04T15:35:30.265Z,16.70
2022-10-04T15:38:05.519Z,16.60
2022-10-04T15:40:43.158Z,16.60
2022-10-04T15:43:24.141Z,16.50
2022-10-04T15:46:40.147Z,16.40
2022-10-04T15:49:31.126Z,16.40
2022-10-04T15:52:15.359Z,16.30
2022-10-04T15:55:12.640Z,16.30
2022-10-04T15:58:09.736Z,16.20
2022-10-04T16:00:49.540Z,16.20
2022-10-04T16:03:31.951Z,16.00
2022-10-04T16:06:06.228Z,16.00
2022-10-04T16:09:03.685Z,16.10
2022-10-04T16:11:46.070Z,15.80
2022-10-04T16:14:56.990Z,15.80
2022-10-04T16:17:57.209Z,15.70
2022-10-04T16:20:57.063Z,15.50
2022-10-04T16:23:32.726Z,15.50
2022-10-04T16:26:04.970Z,15.50
2022-10-04T16:29:08.140Z,15.40
2022-10-04T16:31:46.783Z,15.30
2022-10-04T16:34:50.409Z,15.40
2022-10-04T16:37:31.607Z,15.30
2022-10-04T16:40:17.321Z,15.30
2022-10-04T16:42:56.321Z,15.20
2022-10-04T16:45:45.676Z,15.20
2022-10-04T16:48:27.492Z,15.00
2022-10-04T16:51:33.210Z,14.90
2022-10-04T16:54:14.490Z,14.80
2022-10-04T16:57:15.208Z,14.80
2022-10-04T16:59:50.213Z,14.80
2022-10-04T17:02:49.266Z,14.80
2022-10-04T17:05:54.764Z,14.70
2022-10-04T17:08:56.851Z,14.50
2022-10-04T17:11:43.317Z,14.40
2022-10-04T17:14:48.264Z,14.40
2022-10-04T17:17:24.797Z,14.20
2022-10-04T17:20:00.617Z,14.20
2022-10-04T17:22:44.937Z,14.20
2022-10-04T17:25:29.915Z,14.00
2022-10-04T17:28:03.042Z,13.90
2022-10-04T17:30:48.155Z,14.00
2022-10-04T17:33:26.558Z,13.90
2022-10-04T17:36:19.361Z,13.90
2022-10-04T17:38:59.777Z,14.00
2022-10-04T17:41:43.401Z,14.00
2022-10-04T17:44:30.357Z,14.10
2022-10-04T17:47:11.901Z,14.10
2022-10-04T17:50:12.937Z,14.00
2022-10-04T17:53:06.140Z,14.10
2022-10-04T17:55:47.661Z,14.00
2022-10-04T17:58:20.587Z,14.00
2022-10-04T18:00:59.447Z,13.90
2022-10-04T18:03:38.536Z,14.00
2022-10-04T18:06:27.304Z,14.00
2022-10-04T18:09:05.787Z,14.00
2022-10-04T18:11:43.739Z,14.00
2022-10-04T18:14:25.498Z,13.90
2022-10-04T18:16:58.448Z,13.90
2022-10-04T18:19:42.839Z,13.80
2022-10-04T18:22:16.026Z,13.70
2022-10-04T18:24:45.644Z,13.60
2022-10-04T18:27:22.379Z,13.60
2022-10-04T18:30:14.443Z,13.60
2022-10-04T18:32:48.676Z,13.50
2022-10-04T18:35:27.890Z,13.60
2022-10-04T18:38:15.953Z,13.60
2022-10-04T18:40:56.405Z,13.50
2022-10-04T18:43:32.387Z,13.50
2022-10-04T18:46:17.754Z,13.50
2022-10-04T18:48:55.934Z,13.40
2022-10-04T18:51:37.656Z,13.30
2022-10-04T18:54:21.566Z,13.30
2022-10-04T18:56:59.702Z,13.30
2022-10-04T18:59:58.248Z,13.40
2022-10-04T19:02:35.140Z,13.50
2022-10-04T19:05:14.887Z,13.50
2022-10-04T19:07:51.450Z,13.40
2022-10-04T19:10:31.257Z,13.40
2022-10-04T19:13:12.528Z,13.30
2022-10-04T19:16:02.136Z,13.40
2022-10-04T19:18:48.640Z,13.40
2022-10-04T19:21:26.719Z,13.30
2022-10-04T19:24:20.457Z,13.30
2022-10-04T19:26:57.033Z,13.30
2022-10-04T19:29:38.283Z,13.40
2022-10-04T19:32:13.595Z,13.40
2022-10-04T19:34:53.722Z,13.30
2022-10-04T19:37:26.969Z,13.30
2022-10-04T19:40:05.092Z,13.20
2022-10-04T19:42:43.844Z,13.20
2022-10-04T19:45:26.929Z,13.20
2022-10-04T19:47:59.405Z,13.10
2022-10-04T19:50:31.482Z,13.10
2022-10-04T19:53:03.895Z,13.30
2022-10-04T19:55:43.777Z,13.20
2022-10-04T19:58:27.245Z,13.10
2022-10-04T20:00:55.801Z,13.20
2022-10-04T20:03:24.251Z,13.10
2022-10-04T20:05:54.414Z,13.10
2022-10-04T20:08:50.412Z,13.10
2022-10-04T20:11:22.949Z,13.10
2022-10-04T20:14:28.109Z,13.00
2022-10-04T20:17:05.187Z,13.00
2022-10-04T20:19:40.950Z,12.90
2022-10-04T20:22:30.453Z,12.90
2022-10-04T20:24:59.566Z,13.00
2022-10-04T20:28:03.644Z,13.00
2022-10-04T20:30:52.236Z,12.90
2022-10-04T20:33:51.258Z,12.90
2022-10-04T20:36:54.689Z,12.90
2022-10-04T20:39:59.752Z,12.90
2022-10-04T20:42:33.828Z,12.90
2022-10-04T20:45:20.732Z,12.90
2022-10-04T20:47:51.008Z,12.90
2022-10-04T20:50:31.273Z,12.90
2022-10-04T20:53:04.073Z,12.90
2022-10-04T20:55:34.047Z,12.90
2022-10-04T20:58:04.081Z,13.00
2022-10-04T21:00:37.161Z,12.90
2022-10-04T21:03:18.877Z,12.90
2022-10-04T21:06:01.716Z,13.00
2022-10-04T21:08:30.859Z,12.90
2022-10-04T21:11:19.380Z,12.80
2022-10-04T21:13:54.271Z,12.80
2022-10-04T21:16:42.387Z,12.80
2022-10-04T21:19:32.373Z,12.80
2022-10-04T21:22:02.079Z,12.80
2022-10-04T21:24:38.737Z,12.80
2022-10-04T21:27:10.894Z,12.70
2022-10-04T21:29:41.333Z,12.70
2022-10-04T21:32:11.447Z,12.70
2022-10-04T21:34:53.001Z,12.80
2022-10-04T21:37:25.941Z,12.80
2022-10-04T21:39:56.536Z,12.70
2022-10-04T21:42:25.601Z,12.60
2022-10-04T21:44:53.999Z,12.80
2022-10-04T21:47:23.950Z,12.70
2022-10-04T21:49:53.913Z,12.70
2022-10-04T21:52:23.849Z,12.80
2022-10-04T21:54:52.515Z,12.70
2022-10-04T21:57:25.311Z,12.70
2022-10-04T21:59:53.751Z,12.70
2022-10-04T22:02:23.558Z,12.60
2022-10-04T22:04:53.825Z,12.70
2022-10-04T22:07:22.124Z,12.60
2022-10-04T22:09:50.510Z,12.60
2022-10-04T22:12:18.775Z,12.60
2022-10-04T22:14:47.490Z,12.60
2022-10-04T22:17:15.722Z,12.70
2022-10-04T22:19:45.532Z,12.70
2022-10-04T22:22:18.353Z,12.60
2022-10-04T22:24:46.806Z,12.60
2022-10-04T22:27:19.379Z,12.60
2022-10-04T22:29:50.098Z,12.60
2022-10-04T22:32:27.919Z,12.70
2022-10-04T22:35:07.305Z,12.70
2022-10-04T22:37:39.587Z,12.70
2022-10-04T22:40:12.418Z,12.70
2022-10-04T22:42:40.957Z,12.70
2022-10-04T22:45:16.976Z,12.60
2022-10-04T22:47:48.847Z,12.50
2022-10-04T22:50:36.991Z,12.60
2022-10-04T22:53:12.719Z,12.50
2022-10-04T22:55:42.482Z,12.50
2022-10-04T22:58:14.249Z,12.40
2022-10-04T23:00:43.149Z,12.40
2022-10-04T23:03:25.363Z,12.40
2022-10-04T23:06:05.994Z,12.40
2022-10-04T23:08:34.296Z,12.40
2022-10-04T23:11:04.787Z,12.30
2022-10-04T23:13:35.252Z,12.30
2022-10-04T23:16:12.166Z,12.30
2022-10-04T23:18:42.624Z,12.30
2022-10-04T23:21:22.090Z,12.20
2022-10-04T23:23:53.105Z,12.10
2022-10-04T23:26:24.874Z,12.10
2022-10-04T23:28:53.527Z,12.10
2022-10-04T23:31:25.171Z,12.10
2022-10-04T23:33:57.758Z,12.00
2022-10-04T23:36:28.777Z,12.00
2022-10-04T23:39:01.616Z,12.00
2022-10-04T23:41:33.901Z,12.00
2022-10-04T23:44:02.338Z,12.00
2022-10-04T23:46:33.473Z,12.00
2022-10-04T23:49:01.999Z,11.90
2022-10-04T23:51:33.806Z,11.90
2022-10-04T23:54:02.068Z,12.00
2022-10-04T23:56:30.994Z,12.00
2022-10-04T23:59:02.708Z,12.00
